ORB249 UWGG-ULLI
Flight info
| Callsign | ORB249 |
|---|---|
| Flight time | 1h 19m |
| Altitude | 38000 |
| Route | LARNO2U LARNO T784 ROKUR P164 PINOK N50 GENPA GENPA1A |
| Aircraft | B77W/H-SDE1E2E3FGHIJ2J3J4J5M1RWXY/LB1D1 |
Departure
| Time | 2026-04-17 09:14 |
|---|---|
| Airport | Nizhny Novgorod / Strigino International Airport (UWGG) |
Arrival
| Time | 2026-04-17 10:33 |
|---|---|
| Airport | Pulkovo Airport (ULLI) |
| Time | Latitude | Longitude | Altitude | Speed | Heading |
|---|---|---|---|---|---|
| 2026-04-17 08:38 | 56.22001 | 43.78822 | 262 ft | 0 kts | 102° |
| 2026-04-17 09:01 | 56.22001 | 43.78820 | 262 ft | 1 kts | 102° |
| 2026-04-17 09:01 | 56.22002 | 43.78794 | 262 ft | 2 kts | 79° |
| 2026-04-17 09:01 | 56.21997 | 43.78769 | 262 ft | 2 kts | 57° |
| 2026-04-17 09:01 | 56.21988 | 43.78749 | 261 ft | 2 kts | 37° |
| 2026-04-17 09:02 | 56.21975 | 43.78736 | 261 ft | 2 kts | 16° |
| 2026-04-17 09:02 | 56.21960 | 43.78732 | 261 ft | 2 kts | 355° |
| 2026-04-17 09:02 | 56.21946 | 43.78738 | 261 ft | 2 kts | 335° |
| 2026-04-17 09:02 | 56.21933 | 43.78752 | 262 ft | 2 kts | 314° |
| 2026-04-17 09:03 | 56.21924 | 43.78773 | 262 ft | 2 kts | 294° |
| 2026-04-17 09:03 | 56.21921 | 43.78788 | 262 ft | 0 kts | 282° |
| 2026-04-17 09:03 | 56.21920 | 43.78795 | 262 ft | 0 kts | 282° |
| 2026-04-17 09:06 | 56.21923 | 43.78772 | 262 ft | 5 kts | 282° |
| 2026-04-17 09:06 | 56.21947 | 43.78671 | 261 ft | 11 kts | 321° |
| 2026-04-17 09:07 | 56.22050 | 43.78667 | 261 ft | 18 kts | 8° |
| 2026-04-17 09:07 | 56.22195 | 43.78721 | 260 ft | 24 kts | 12° |
| 2026-04-17 09:07 | 56.22327 | 43.78768 | 259 ft | 0 kts | 11° |
| 2026-04-17 09:07 | 56.22329 | 43.78769 | 259 ft | 2 kts | 11° |
| 2026-04-17 09:08 | 56.22387 | 43.78789 | 258 ft | 14 kts | 12° |
| 2026-04-17 09:08 | 56.22517 | 43.78866 | 258 ft | 24 kts | 13° |
| 2026-04-17 09:08 | 56.22714 | 43.78936 | 258 ft | 33 kts | 11° |
| 2026-04-17 09:08 | 56.22969 | 43.79028 | 258 ft | 39 kts | 11° |
| 2026-04-17 09:09 | 56.23235 | 43.79124 | 257 ft | 37 kts | 11° |
| 2026-04-17 09:09 | 56.23464 | 43.79209 | 258 ft | 24 kts | 11° |
| 2026-04-17 09:09 | 56.23582 | 43.79231 | 258 ft | 12 kts | 3° |
| 2026-04-17 09:09 | 56.23664 | 43.79239 | 258 ft | 11 kts | 3° |
| 2026-04-17 09:10 | 56.23743 | 43.79245 | 257 ft | 0 kts | 2° |
| 2026-04-17 09:10 | 56.23752 | 43.79245 | 257 ft | 2 kts | 2° |
| 2026-04-17 09:10 | 56.23780 | 43.79247 | 257 ft | 5 kts | 2° |
| 2026-04-17 09:11 | 56.23791 | 43.79248 | 257 ft | 2 kts | 2° |
| 2026-04-17 09:11 | 56.23808 | 43.79248 | 257 ft | 3 kts | 2° |
| 2026-04-17 09:11 | 56.23856 | 43.79252 | 257 ft | 9 kts | 2° |
| 2026-04-17 09:11 | 56.23942 | 43.79258 | 258 ft | 14 kts | 2° |
| 2026-04-17 09:12 | 56.24053 | 43.79227 | 257 ft | 18 kts | 327° |
| 2026-04-17 09:12 | 56.24105 | 43.79021 | 258 ft | 19 kts | 238° |
| 2026-04-17 09:12 | 56.24022 | 43.78957 | 258 ft | 0 kts | 192° |
| 2026-04-17 09:13 | 56.24020 | 43.78957 | 258 ft | 0 kts | 192° |
| 2026-04-17 09:13 | 56.24000 | 43.78949 | 258 ft | 10 kts | 192° |
| 2026-04-17 09:13 | 56.23591 | 43.78802 | 257 ft | 114 kts | 192° |
| 2026-04-17 09:13 | 56.22519 | 43.78437 | 510 ft | 188 kts | 192° |
| 2026-04-17 09:14 | 56.21194 | 43.78031 | 1711 ft | 211 kts | 193° |
| 2026-04-17 09:14 | 56.19816 | 43.77610 | 3570 ft | 210 kts | 194° |
| 2026-04-17 09:14 | 56.18516 | 43.77161 | 5460 ft | 199 kts | 195° |
| 2026-04-17 09:14 | 56.17218 | 43.76705 | 6934 ft | 203 kts | 195° |
| 2026-04-17 09:15 | 56.15918 | 43.76024 | 7900 ft | 201 kts | 210° |
| 2026-04-17 09:15 | 56.14643 | 43.74771 | 8412 ft | 220 kts | 212° |
| 2026-04-17 09:15 | 56.13264 | 43.73362 | 9006 ft | 238 kts | 212° |
| 2026-04-17 09:15 | 56.11776 | 43.71840 | 9652 ft | 255 kts | 212° |
| 2026-04-17 09:16 | 56.10207 | 43.70240 | 10363 ft | 270 kts | 212° |
| 2026-04-17 09:16 | 56.08550 | 43.68552 | 11050 ft | 286 kts | 212° |
| 2026-04-17 09:16 | 56.06775 | 43.66746 | 11738 ft | 302 kts | 212° |
| 2026-04-17 09:16 | 56.04900 | 43.64844 | 12444 ft | 318 kts | 211° |
| 2026-04-17 09:17 | 56.02950 | 43.62811 | 13144 ft | 332 kts | 216° |
| 2026-04-17 09:17 | 56.01181 | 43.60161 | 13807 ft | 347 kts | 227° |
| 2026-04-17 09:17 | 55.99547 | 43.56889 | 14512 ft | 361 kts | 230° |
| 2026-04-17 09:17 | 55.97876 | 43.53433 | 15353 ft | 372 kts | 230° |
| 2026-04-17 09:18 | 55.96193 | 43.49965 | 16332 ft | 378 kts | 229° |
| 2026-04-17 09:18 | 55.94477 | 43.46440 | 17362 ft | 383 kts | 229° |
| 2026-04-17 09:18 | 55.92729 | 43.42861 | 18352 ft | 388 kts | 229° |
| 2026-04-17 09:18 | 55.90959 | 43.39244 | 19326 ft | 393 kts | 229° |
| 2026-04-17 09:19 | 55.89140 | 43.35533 | 20277 ft | 399 kts | 230° |
| 2026-04-17 09:19 | 55.87480 | 43.31608 | 21204 ft | 404 kts | 236° |
| 2026-04-17 09:19 | 55.86126 | 43.27200 | 22118 ft | 410 kts | 244° |
| 2026-04-17 09:19 | 55.85142 | 43.22465 | 22978 ft | 417 kts | 252° |
| 2026-04-17 09:20 | 55.84546 | 43.17354 | 23829 ft | 424 kts | 261° |
| 2026-04-17 09:20 | 55.84391 | 43.12114 | 24628 ft | 432 kts | 269° |
| 2026-04-17 09:20 | 55.84697 | 43.06770 | 25367 ft | 441 kts | 278° |
| 2026-04-17 09:20 | 55.85490 | 43.01465 | 26093 ft | 450 kts | 287° |
| 2026-04-17 09:21 | 55.86753 | 42.96439 | 26807 ft | 458 kts | 296° |
| 2026-04-17 09:21 | 55.88518 | 42.91652 | 27541 ft | 465 kts | 304° |
| 2026-04-17 09:21 | 55.90470 | 42.87054 | 28276 ft | 470 kts | 304° |
| 2026-04-17 09:21 | 55.92435 | 42.82359 | 28968 ft | 475 kts | 304° |
| 2026-04-17 09:22 | 55.94379 | 42.77618 | 29698 ft | 478 kts | 304° |
| 2026-04-17 09:22 | 55.96304 | 42.72849 | 30651 ft | 476 kts | 304° |
| 2026-04-17 09:22 | 55.98208 | 42.68080 | 31621 ft | 472 kts | 303° |
| 2026-04-17 09:22 | 56.00078 | 42.63354 | 32451 ft | 469 kts | 303° |
| 2026-04-17 09:23 | 56.01971 | 42.58535 | 33134 ft | 468 kts | 303° |
| 2026-04-17 09:23 | 56.03847 | 42.53729 | 33745 ft | 468 kts | 303° |
| 2026-04-17 09:23 | 56.05701 | 42.48839 | 34350 ft | 467 kts | 301° |
| 2026-04-17 09:23 | 56.07485 | 42.43983 | 34938 ft | 466 kts | 301° |
| 2026-04-17 09:24 | 56.09261 | 42.39129 | 35391 ft | 465 kts | 301° |
| 2026-04-17 09:24 | 56.11029 | 42.34290 | 35755 ft | 464 kts | 300° |
| 2026-04-17 09:24 | 56.12801 | 42.29427 | 36074 ft | 464 kts | 300° |
| 2026-04-17 09:24 | 56.14569 | 42.24568 | 36363 ft | 465 kts | 300° |
| 2026-04-17 09:25 | 56.16321 | 42.19745 | 36754 ft | 465 kts | 300° |
| 2026-04-17 09:25 | 56.18090 | 42.14862 | 37158 ft | 466 kts | 301° |
| 2026-04-17 09:25 | 56.19852 | 42.09993 | 37533 ft | 466 kts | 301° |
| 2026-04-17 09:25 | 56.21746 | 42.05334 | 37878 ft | 468 kts | 306° |
| 2026-04-17 09:26 | 56.23754 | 42.00724 | 38019 ft | 471 kts | 306° |
| 2026-04-17 09:26 | 56.25775 | 41.96077 | 38016 ft | 471 kts | 306° |
| 2026-04-17 09:26 | 56.29768 | 41.86810 | 38015 ft | 469 kts | 306° |
| 2026-04-17 09:27 | 56.33728 | 41.77533 | 38020 ft | 469 kts | 305° |
| 2026-04-17 09:27 | 56.37681 | 41.68212 | 38013 ft | 468 kts | 305° |
| 2026-04-17 09:28 | 56.41597 | 41.58930 | 38006 ft | 467 kts | 305° |
| 2026-04-17 09:28 | 56.45517 | 41.49594 | 38015 ft | 469 kts | 305° |
| 2026-04-17 09:29 | 56.49446 | 41.40198 | 38003 ft | 469 kts | 305° |
| 2026-04-17 09:29 | 56.53347 | 41.30829 | 38000 ft | 470 kts | 304° |
| 2026-04-17 09:30 | 56.57276 | 41.21355 | 38007 ft | 469 kts | 304° |
| 2026-04-17 09:30 | 56.61026 | 41.11702 | 38008 ft | 467 kts | 296° |
| 2026-04-17 09:31 | 56.63421 | 41.00845 | 38008 ft | 466 kts | 286° |
| 2026-04-17 09:31 | 56.65358 | 40.89745 | 38007 ft | 464 kts | 285° |
| 2026-04-17 09:32 | 56.67282 | 40.78576 | 38008 ft | 464 kts | 285° |
| 2026-04-17 09:32 | 56.69175 | 40.67494 | 38006 ft | 464 kts | 285° |
| 2026-04-17 09:33 | 56.71081 | 40.56254 | 38004 ft | 464 kts | 285° |
| 2026-04-17 09:33 | 56.72964 | 40.45070 | 38001 ft | 466 kts | 285° |
| 2026-04-17 09:34 | 56.74844 | 40.33828 | 37982 ft | 466 kts | 285° |
| 2026-04-17 09:34 | 56.75784 | 40.28184 | 38097 ft | 465 kts | 285° |
| 2026-04-17 09:34 | 56.76717 | 40.22561 | 38004 ft | 465 kts | 285° |
| 2026-04-17 09:35 | 56.78575 | 40.11303 | 37998 ft | 466 kts | 285° |
| 2026-04-17 09:35 | 56.80421 | 40.00049 | 37984 ft | 464 kts | 285° |
| 2026-04-17 09:36 | 56.82255 | 39.88792 | 37988 ft | 465 kts | 285° |
| 2026-04-17 09:36 | 56.84083 | 39.77564 | 37984 ft | 464 kts | 285° |
| 2026-04-17 09:37 | 56.85909 | 39.66272 | 37995 ft | 465 kts | 285° |
| 2026-04-17 09:37 | 56.87730 | 39.54933 | 37992 ft | 465 kts | 285° |
| 2026-04-17 09:38 | 56.89534 | 39.43632 | 37999 ft | 467 kts | 285° |
| 2026-04-17 09:38 | 56.91333 | 39.32281 | 37993 ft | 466 kts | 284° |
| 2026-04-17 09:39 | 56.93122 | 39.20916 | 37995 ft | 465 kts | 284° |
| 2026-04-17 09:39 | 56.94901 | 39.09541 | 37988 ft | 466 kts | 284° |
| 2026-04-17 09:40 | 56.96669 | 38.98163 | 37991 ft | 467 kts | 284° |
| 2026-04-17 09:40 | 56.98430 | 38.86747 | 37985 ft | 466 kts | 284° |
| 2026-04-17 09:41 | 57.00179 | 38.75330 | 37971 ft | 467 kts | 284° |
| 2026-04-17 09:41 | 57.01915 | 38.63923 | 37970 ft | 468 kts | 284° |
| 2026-04-17 09:42 | 57.03639 | 38.52516 | 37970 ft | 467 kts | 284° |
| 2026-04-17 09:42 | 57.05358 | 38.41064 | 37970 ft | 467 kts | 284° |
| 2026-04-17 09:43 | 57.07066 | 38.29599 | 37968 ft | 466 kts | 283° |
| 2026-04-17 09:43 | 57.08762 | 38.18135 | 37969 ft | 467 kts | 283° |
| 2026-04-17 09:44 | 57.10452 | 38.06634 | 37966 ft | 467 kts | 283° |
| 2026-04-17 09:44 | 57.12139 | 37.95063 | 37957 ft | 468 kts | 283° |
| 2026-04-17 09:45 | 57.13808 | 37.83541 | 37962 ft | 469 kts | 283° |
| 2026-04-17 09:45 | 57.15472 | 37.71968 | 37958 ft | 468 kts | 283° |
| 2026-04-17 09:46 | 57.17332 | 37.60489 | 37960 ft | 470 kts | 290° |
| 2026-04-17 09:46 | 57.19753 | 37.49283 | 37958 ft | 471 kts | 290° |
| 2026-04-17 09:47 | 57.22171 | 37.38046 | 37964 ft | 471 kts | 290° |
| 2026-04-17 09:47 | 57.24544 | 37.26922 | 37964 ft | 471 kts | 290° |
| 2026-04-17 09:48 | 57.26927 | 37.15665 | 37961 ft | 471 kts | 290° |
| 2026-04-17 09:48 | 57.29287 | 37.04451 | 37963 ft | 472 kts | 290° |
| 2026-04-17 09:49 | 57.31651 | 36.93145 | 37962 ft | 473 kts | 290° |
| 2026-04-17 09:49 | 57.33992 | 36.81884 | 37966 ft | 473 kts | 290° |
| 2026-04-17 09:50 | 57.36332 | 36.70562 | 37959 ft | 473 kts | 290° |
| 2026-04-17 09:50 | 57.38659 | 36.59243 | 37960 ft | 472 kts | 290° |
| 2026-04-17 09:51 | 57.40977 | 36.47901 | 37964 ft | 473 kts | 290° |
| 2026-04-17 09:51 | 57.43292 | 36.36509 | 37960 ft | 473 kts | 290° |
| 2026-04-17 09:52 | 57.45594 | 36.25113 | 37962 ft | 473 kts | 289° |
| 2026-04-17 09:52 | 57.47881 | 36.13733 | 37963 ft | 474 kts | 289° |
| 2026-04-17 09:53 | 57.50170 | 36.02301 | 37964 ft | 473 kts | 290° |
| 2026-04-17 09:53 | 57.52458 | 35.90876 | 37962 ft | 474 kts | 290° |
| 2026-04-17 09:54 | 57.54734 | 35.79442 | 37964 ft | 473 kts | 290° |
| 2026-04-17 09:54 | 57.57011 | 35.67932 | 37967 ft | 474 kts | 290° |
| 2026-04-17 09:55 | 57.59264 | 35.56477 | 37964 ft | 474 kts | 290° |
| 2026-04-17 09:55 | 57.61543 | 35.45050 | 37973 ft | 474 kts | 291° |
| 2026-04-17 09:56 | 57.63905 | 35.33599 | 37970 ft | 475 kts | 290° |
| 2026-04-17 09:56 | 57.66254 | 35.22124 | 37966 ft | 474 kts | 290° |
| 2026-04-17 09:57 | 57.68588 | 35.10645 | 37968 ft | 475 kts | 290° |
| 2026-04-17 09:57 | 57.71101 | 34.99226 | 37968 ft | 476 kts | 299° |
| 2026-04-17 09:58 | 57.74963 | 34.89329 | 37974 ft | 475 kts | 311° |
| 2026-04-17 09:58 | 57.79338 | 34.80026 | 37971 ft | 475 kts | 311° |
| 2026-04-17 09:59 | 57.83666 | 34.70787 | 37973 ft | 474 kts | 311° |
| 2026-04-17 09:59 | 57.87997 | 34.61487 | 37971 ft | 476 kts | 311° |
| 2026-04-17 10:00 | 57.92332 | 34.52137 | 37970 ft | 475 kts | 311° |
| 2026-04-17 10:00 | 57.96683 | 34.42710 | 37967 ft | 475 kts | 311° |
| 2026-04-17 10:01 | 58.01020 | 34.33274 | 37971 ft | 475 kts | 311° |
| 2026-04-17 10:01 | 58.05350 | 34.23812 | 37975 ft | 476 kts | 311° |
| 2026-04-17 10:02 | 58.09658 | 34.14362 | 37972 ft | 476 kts | 311° |
| 2026-04-17 10:02 | 58.13959 | 34.04887 | 37974 ft | 475 kts | 311° |
| 2026-04-17 10:03 | 58.18247 | 33.95404 | 37980 ft | 475 kts | 311° |
| 2026-04-17 10:03 | 58.22528 | 33.85897 | 37981 ft | 474 kts | 311° |
| 2026-04-17 10:04 | 58.26799 | 33.76372 | 37975 ft | 474 kts | 311° |
| 2026-04-17 10:04 | 58.31025 | 33.66913 | 37976 ft | 474 kts | 311° |
| 2026-04-17 10:05 | 58.35276 | 33.57356 | 37983 ft | 474 kts | 311° |
| 2026-04-17 10:05 | 58.39530 | 33.47753 | 37976 ft | 473 kts | 311° |
| 2026-04-17 10:06 | 58.43744 | 33.38203 | 37982 ft | 472 kts | 311° |
| 2026-04-17 10:06 | 58.47947 | 33.28637 | 37983 ft | 472 kts | 310° |
| 2026-04-17 10:07 | 58.52179 | 33.18966 | 37984 ft | 472 kts | 310° |
| 2026-04-17 10:07 | 58.56326 | 33.09450 | 37993 ft | 468 kts | 310° |
| 2026-04-17 10:08 | 58.60442 | 32.99968 | 37611 ft | 468 kts | 310° |
| 2026-04-17 10:08 | 58.62508 | 32.95195 | 37426 ft | 467 kts | 311° |
| 2026-04-17 10:08 | 58.64567 | 32.90427 | 37345 ft | 463 kts | 311° |
| 2026-04-17 10:09 | 58.66641 | 32.85613 | 37228 ft | 461 kts | 311° |
| 2026-04-17 10:09 | 58.68688 | 32.80854 | 37064 ft | 461 kts | 311° |
| 2026-04-17 10:09 | 58.70722 | 32.76115 | 36858 ft | 461 kts | 311° |
| 2026-04-17 10:09 | 58.72759 | 32.71360 | 36690 ft | 461 kts | 311° |
| 2026-04-17 10:10 | 58.74764 | 32.66670 | 36567 ft | 460 kts | 311° |
| 2026-04-17 10:10 | 58.76789 | 32.61923 | 36443 ft | 459 kts | 311° |
| 2026-04-17 10:10 | 58.78823 | 32.57147 | 36273 ft | 460 kts | 311° |
| 2026-04-17 10:11 | 58.82932 | 32.47469 | 34996 ft | 474 kts | 312° |
| 2026-04-17 10:11 | 58.85025 | 32.42525 | 34151 ft | 481 kts | 313° |
| 2026-04-17 10:11 | 58.87131 | 32.37540 | 33248 ft | 487 kts | 313° |
| 2026-04-17 10:11 | 58.89269 | 32.32465 | 32236 ft | 490 kts | 312° |
| 2026-04-17 10:12 | 58.91404 | 32.27387 | 31307 ft | 492 kts | 313° |
| 2026-04-17 10:12 | 58.93586 | 32.22185 | 30433 ft | 490 kts | 313° |
| 2026-04-17 10:12 | 58.95697 | 32.17136 | 29949 ft | 481 kts | 313° |
| 2026-04-17 10:12 | 58.97773 | 32.12161 | 29457 ft | 474 kts | 312° |
| 2026-04-17 10:13 | 58.99831 | 32.07220 | 28918 ft | 467 kts | 312° |
| 2026-04-17 10:13 | 59.01843 | 32.02383 | 28376 ft | 461 kts | 312° |
| 2026-04-17 10:13 | 59.03823 | 31.97611 | 27827 ft | 455 kts | 312° |
| 2026-04-17 10:13 | 59.05778 | 31.92892 | 27292 ft | 449 kts | 312° |
| 2026-04-17 10:14 | 59.07719 | 31.88196 | 26750 ft | 444 kts | 312° |
| 2026-04-17 10:14 | 59.09636 | 31.83551 | 26207 ft | 438 kts | 312° |
| 2026-04-17 10:14 | 59.11415 | 31.78783 | 25682 ft | 434 kts | 308° |
| 2026-04-17 10:14 | 59.13103 | 31.73930 | 25112 ft | 430 kts | 308° |
| 2026-04-17 10:15 | 59.14753 | 31.69153 | 24558 ft | 426 kts | 308° |
| 2026-04-17 10:15 | 59.16388 | 31.64407 | 24010 ft | 422 kts | 308° |
| 2026-04-17 10:15 | 59.17990 | 31.59743 | 23476 ft | 418 kts | 308° |
| 2026-04-17 10:15 | 59.19617 | 31.54997 | 22933 ft | 415 kts | 308° |
| 2026-04-17 10:16 | 59.21203 | 31.50362 | 22401 ft | 414 kts | 308° |
| 2026-04-17 10:16 | 59.22794 | 31.45699 | 21867 ft | 411 kts | 308° |
| 2026-04-17 10:16 | 59.24374 | 31.41060 | 21333 ft | 406 kts | 307° |
| 2026-04-17 10:16 | 59.25921 | 31.36509 | 20807 ft | 402 kts | 308° |
| 2026-04-17 10:17 | 59.27446 | 31.32009 | 20301 ft | 398 kts | 307° |
| 2026-04-17 10:17 | 59.28972 | 31.27503 | 19779 ft | 395 kts | 307° |
| 2026-04-17 10:17 | 59.30471 | 31.23066 | 19273 ft | 393 kts | 307° |
| 2026-04-17 10:17 | 59.31955 | 31.18666 | 18774 ft | 391 kts | 307° |
| 2026-04-17 10:18 | 59.33452 | 31.14221 | 18275 ft | 388 kts | 307° |
| 2026-04-17 10:18 | 59.34924 | 31.09838 | 17770 ft | 384 kts | 307° |
| 2026-04-17 10:18 | 59.36367 | 31.05533 | 17278 ft | 381 kts | 306° |
| 2026-04-17 10:18 | 59.37807 | 31.01231 | 16745 ft | 379 kts | 307° |
| 2026-04-17 10:19 | 59.39258 | 30.96887 | 16256 ft | 377 kts | 306° |
| 2026-04-17 10:19 | 59.40662 | 30.92675 | 15747 ft | 374 kts | 306° |
| 2026-04-17 10:19 | 59.42078 | 30.88419 | 15246 ft | 370 kts | 306° |
| 2026-04-17 10:19 | 59.43476 | 30.84209 | 14754 ft | 367 kts | 306° |
| 2026-04-17 10:20 | 59.44854 | 30.80053 | 14289 ft | 366 kts | 306° |
| 2026-04-17 10:20 | 59.46235 | 30.75880 | 13818 ft | 364 kts | 306° |
| 2026-04-17 10:20 | 59.47596 | 30.71759 | 13366 ft | 360 kts | 306° |
| 2026-04-17 10:20 | 59.48955 | 30.67637 | 12896 ft | 356 kts | 306° |
| 2026-04-17 10:21 | 59.50283 | 30.63602 | 12432 ft | 354 kts | 306° |
| 2026-04-17 10:21 | 59.51612 | 30.59559 | 11973 ft | 353 kts | 306° |
| 2026-04-17 10:21 | 59.52951 | 30.55475 | 11506 ft | 352 kts | 306° |
| 2026-04-17 10:21 | 59.54224 | 30.51437 | 11067 ft | 349 kts | 300° |
| 2026-04-17 10:22 | 59.55093 | 30.47047 | 10652 ft | 345 kts | 291° |
| 2026-04-17 10:22 | 59.55792 | 30.42561 | 10462 ft | 334 kts | 290° |
| 2026-04-17 10:22 | 59.56438 | 30.38300 | 10227 ft | 324 kts | 290° |
| 2026-04-17 10:22 | 59.57078 | 30.34067 | 9980 ft | 316 kts | 289° |
| 2026-04-17 10:23 | 59.57690 | 30.30000 | 9700 ft | 309 kts | 289° |
| 2026-04-17 10:23 | 59.58293 | 30.25989 | 9431 ft | 303 kts | 289° |
| 2026-04-17 10:23 | 59.59129 | 30.22317 | 9298 ft | 286 kts | 309° |
| 2026-04-17 10:23 | 59.60349 | 30.19380 | 9216 ft | 270 kts | 314° |
| 2026-04-17 10:24 | 59.61545 | 30.16664 | 9180 ft | 254 kts | 314° |
| 2026-04-17 10:24 | 59.62666 | 30.14119 | 9104 ft | 238 kts | 314° |
| 2026-04-17 10:24 | 59.63738 | 30.11687 | 8785 ft | 233 kts | 314° |
| 2026-04-17 10:24 | 59.64800 | 30.09280 | 8337 ft | 233 kts | 315° |
| 2026-04-17 10:25 | 59.65863 | 30.06868 | 7888 ft | 234 kts | 314° |
| 2026-04-17 10:25 | 59.66933 | 30.04437 | 7427 ft | 233 kts | 314° |
| 2026-04-17 10:25 | 59.67998 | 30.02018 | 6960 ft | 233 kts | 314° |
| 2026-04-17 10:25 | 59.69044 | 29.99636 | 6534 ft | 233 kts | 315° |
| 2026-04-17 10:26 | 59.70108 | 29.97211 | 6164 ft | 231 kts | 315° |
| 2026-04-17 10:26 | 59.71154 | 29.94824 | 5777 ft | 229 kts | 315° |
| 2026-04-17 10:26 | 59.72194 | 29.92450 | 5365 ft | 227 kts | 315° |
| 2026-04-17 10:26 | 59.73215 | 29.90114 | 4965 ft | 226 kts | 315° |
| 2026-04-17 10:27 | 59.74243 | 29.87764 | 4561 ft | 225 kts | 315° |
| 2026-04-17 10:27 | 59.75264 | 29.85426 | 4183 ft | 225 kts | 315° |
| 2026-04-17 10:27 | 59.76283 | 29.83133 | 3769 ft | 223 kts | 321° |
| 2026-04-17 10:27 | 59.77573 | 29.81524 | 3344 ft | 213 kts | 346° |
| 2026-04-17 10:28 | 59.78968 | 29.81171 | 3078 ft | 199 kts | 8° |
| 2026-04-17 10:28 | 59.80252 | 29.81897 | 2873 ft | 186 kts | 29° |
| 2026-04-17 10:28 | 59.81239 | 29.83410 | 2725 ft | 173 kts | 49° |
| 2026-04-17 10:28 | 59.81891 | 29.85339 | 2739 ft | 169 kts | 56° |
| 2026-04-17 10:29 | 59.82505 | 29.87358 | 2656 ft | 167 kts | 58° |
| 2026-04-17 10:29 | 59.83064 | 29.89343 | 2605 ft | 166 kts | 59° |
| 2026-04-17 10:29 | 59.83619 | 29.91342 | 2535 ft | 165 kts | 59° |
| 2026-04-17 10:29 | 59.83995 | 29.93501 | 2459 ft | 168 kts | 81° |
| 2026-04-17 10:30 | 59.83844 | 29.95809 | 2418 ft | 171 kts | 100° |
| 2026-04-17 10:30 | 59.83486 | 29.98106 | 2408 ft | 169 kts | 101° |
| 2026-04-17 10:30 | 59.83160 | 30.00291 | 2248 ft | 163 kts | 100° |
| 2026-04-17 10:30 | 59.82856 | 30.02398 | 2048 ft | 157 kts | 99° |
| 2026-04-17 10:31 | 59.82554 | 30.04469 | 1854 ft | 157 kts | 99° |
| 2026-04-17 10:31 | 59.82251 | 30.06536 | 1643 ft | 156 kts | 99° |
| 2026-04-17 10:31 | 59.81943 | 30.08629 | 1441 ft | 158 kts | 99° |
| 2026-04-17 10:31 | 59.81641 | 30.10682 | 1227 ft | 155 kts | 100° |
| 2026-04-17 10:32 | 59.81334 | 30.12752 | 1034 ft | 158 kts | 100° |
| 2026-04-17 10:32 | 59.81038 | 30.14780 | 842 ft | 151 kts | 100° |
| 2026-04-17 10:32 | 59.80743 | 30.16773 | 639 ft | 153 kts | 100° |
| 2026-04-17 10:32 | 59.80451 | 30.18751 | 440 ft | 149 kts | 102° |
| 2026-04-17 10:33 | 59.80154 | 30.20733 | 242 ft | 155 kts | 101° |
| 2026-04-17 10:33 | 59.79857 | 30.22681 | 115 ft | 136 kts | 102° |
| 2026-04-17 10:33 | 59.79636 | 30.24261 | 89 ft | 99 kts | 104° |
| 2026-04-17 10:33 | 59.79491 | 30.25248 | 89 ft | 46 kts | 104° |
| 2026-04-17 10:34 | 59.79522 | 30.25765 | 89 ft | 28 kts | 74° |
| 2026-04-17 10:34 | 59.79537 | 30.26091 | 88 ft | 18 kts | 100° |
| 2026-04-17 10:34 | 59.79520 | 30.26246 | 88 ft | 5 kts | 80° |
| 2026-04-17 10:34 | 59.79553 | 30.26318 | 88 ft | 9 kts | 27° |
| 2026-04-17 10:35 | 59.79623 | 30.26363 | 87 ft | 11 kts | 16° |
| 2026-04-17 10:35 | 59.79700 | 30.26408 | 86 ft | 11 kts | 16° |
| 2026-04-17 10:35 | 59.79773 | 30.26451 | 86 ft | 7 kts | 16° |
| 2026-04-17 10:35 | 59.79807 | 30.26497 | 86 ft | 5 kts | 65° |
| 2026-04-17 10:36 | 59.79808 | 30.26565 | 86 ft | 5 kts | 98° |
| 2026-04-17 10:36 | 59.79799 | 30.26644 | 86 ft | 5 kts | 105° |
| 2026-04-17 10:36 | 59.79796 | 30.26661 | 86 ft | 0 kts | 105° |